Time;durP1;ratioP1;P1;durP2;ratioP2;P2;SDS_P1;SDS_P2;PMS_P1;PMS_P2;Temp;Humidity;BMP_temperature;BMP_pressure;BME280_temperature;BME280_humidity;BME280_pressure;Samples;Min_cycle;Max_cycle;Signal;HPM_P1;HPM_P2
2022/01/24 00:01:54;;;;;;;;;;;;;;;;;;5086061;28;1523;-75
2022/01/24 00:04:23;;;;;;;;;;;;;;;;;;5086939;28;1293;-75
2022/01/24 00:07:08;;;;;;;;;;;;;;;;;;5086702;28;1256;-74
2022/01/24 00:09:33;;;;;;;;;;;;;;;;;;5086964;28;1204;-75
2022/01/24 00:12:14;;;;;;;;;;;;;;;;;;5085789;28;1913;-74
2022/01/24 00:27:57;;;;;;;;;;;;;;;;;;5104582;28;1048;-74
2022/01/24 00:30:22;;;;;;;;;;;;;;;;;;5106097;28;1996;-75
2022/01/24 00:32:47;;;;;;;;;;;;;;;;;;5072503;28;1175;-75
2022/01/24 00:35:13;;;;;;;;;;;;;;;;;;5087293;28;1186;-76
2022/01/24 00:37:38;;;;;;;;;;;;;;;;;;5069264;28;1306;-75
2022/01/24 00:40:04;;;;;;;;;;;;;;;;;;5085329;28;1217;-75
2022/01/24 00:42:36;;;;;;;;;;;;;;;;;;5087429;28;1248;-75
2022/01/24 00:47:46;;;;;;;;;;;;;;;;;;5126466;28;1159;-75
2022/01/24 00:55:40;;;;;;;;;;;;;;;;;;5125918;28;1154;-75
2022/01/24 00:58:05;;;;;;;;;;;;;;;;;;5088914;28;1385;-75
2022/01/24 01:00:30;;;;;;;;;;;;;;;;;;5106948;28;1195;-75
2022/01/24 01:02:56;;;;;;;;;;;;;;;;;;5106628;28;1148;-75
2022/01/24 01:18:46;;;;;;;;;;;;;;;;;;5126285;28;1079;-75
2022/01/24 01:21:13;;;;;;;;;;;;;;;;;;5093155;27;1269;-76
2022/01/24 01:23:42;;;;;;;;;;;;;;;;;;5114553;27;1244;-76
2022/01/24 01:26:16;;;;;;;;;;;;;;;;;;5113067;27;1380;-74
2022/01/24 01:28:44;;;;;;;;;;;;;;;;;;5110100;27;1174;-75
2022/01/24 01:31:19;;;;;;;;;;;;;;;;;;5127821;27;1988;-74
2022/01/24 01:53:05;;;;;;;;;;;;;;;;;;5090959;28;981;-75
2022/01/24 01:58:03;;;;;;;;;;;;;;;;;;5105454;27;1148;-74
2022/01/24 02:00:28;;;;;;;;;;;;;;;;;;5089362;28;1172;-74
2022/01/24 02:02:53;;;;;;;;;;;;;;;;;;5090044;28;1238;-75
2022/01/24 02:05:20;;;;;;;;;;;;;;;;;;5071064;28;1312;-75
2022/01/24 02:07:47;;;;;;;;;;;;;;;;;;5087536;28;1279;-75
2022/01/24 02:10:12;;;;;;;;;;;;;;;;;;5087408;28;1939;-75
2022/01/24 02:12:37;;;;;;;;;;;;;;;;;;5073322;28;1320;-74
2022/01/24 02:15:03;;;;;;;;;;;;;;;;;;5107383;27;1374;-74
2022/01/24 02:21:05;;;;;;;;;;;;;;;;;;5032917;28;1210;-75
2022/01/24 02:25:54;;;;;;;;;;;;;;;;;;5110773;27;1180;-74
2022/01/24 02:28:24;;;;;;;;;;;;;;;;;;5126197;27;1198;-74
2022/01/24 02:31:16;;;;;;;;;;;;;;;;;;5111610;27;1989;-75
2022/01/24 02:33:44;;;;;;;;;;;;;;;;;;5128350;27;1039;-75
2022/01/24 02:36:10;;;;;;;;;;;;;;;;;;5107634;27;1443;-75
2022/01/24 02:49:25;;;;;;;;;;;;;;;;;;5124455;27;1080;-75
2022/01/24 02:51:50;;;;;;;;;;;;;;;;;;5128086;27;1973;-75
2022/01/24 02:54:31;;;;;;;;;;;;;;;;;;5103768;27;1244;-75
2022/01/24 02:56:56;;;;;;;;;;;;;;;;;;5107279;27;1345;-75
2022/01/24 02:59:22;;;;;;;;;;;;;;;;;;5088678;27;1334;-75
2022/01/24 03:01:47;;;;;;;;;;;;;;;;;;5091804;27;1322;-76
2022/01/24 03:04:13;;;;;;;;;;;;;;;;;;5123722;27;1127;-75
2022/01/24 03:06:38;;;;;;;;;;;;;;;;;;5110167;27;1160;-76
2022/01/24 03:09:04;;;;;;;;;;;;;;;;;;5088235;27;1562;-76
2022/01/24 03:11:51;;;;;;;;;;;;;;;;;;5091229;27;1999;-75
2022/01/24 03:14:15;;;;;;;;;;;;;;;;;;5125247;27;1098;-74
2022/01/24 03:16:41;;;;;;;;;;;;;;;;;;5098842;28;1166;-74
2022/01/24 03:19:07;;;;;;;;;;;;;;;;;;5069134;28;1160;-76
2022/01/24 03:21:32;;;;;;;;;;;;;;;;;;5087710;28;1297;-74
2022/01/24 03:23:58;;;;;;;;;;;;;;;;;;5119598;27;1132;-75
2022/01/24 03:26:23;;;;;;;;;;;;;;;;;;5106928;27;1145;-74
2022/01/24 03:28:48;;;;;;;;;;;;;;;;;;5090367;27;1267;-75
2022/01/24 03:31:13;;;;;;;;;;;;;;;;;;5106454;27;1949;-75
2022/01/24 03:33:39;;;;;;;;;;;;;;;;;;5125690;27;1203;-74
2022/01/24 03:36:05;;;;;;;;;;;;;;;;;;5091484;27;1165;-74
2022/01/24 03:38:30;;;;;;;;;;;;;;;;;;5104060;27;1471;-74
2022/01/24 03:40:56;;;;;;;;;;;;;;;;;;5089465;27;1471;-75
2022/01/24 03:43:21;;;;;;;;;;;;;;;;;;5124517;27;1233;-76
2022/01/24 03:46:08;;;;;;;;;;;;;;;;;;5108674;27;1316;-76
2022/01/24 03:48:41;;;;;;;;;;;;;;;;;;5095715;28;1179;-74
2022/01/24 03:51:10;;;;;;;;;;;;;;;;;;5090198;28;1894;-75
2022/01/24 03:53:35;;;;;;;;;;;;;;;;;;5083807;28;1272;-74
2022/01/24 03:56:01;;;;;;;;;;;;;;;;;;5106009;28;1203;-74
2022/01/24 03:58:26;;;;;;;;;;;;;;;;;;5085868;28;1303;-74
2022/01/24 04:00:52;;;;;;;;;;;;;;;;;;5106177;28;1202;-75
2022/01/24 04:03:17;;;;;;;;;;;;;;;;;;5086200;28;1297;-75
2022/01/24 04:05:42;;;;;;;;;;;;;;;;;;5105979;28;1168;-75
2022/01/24 04:08:12;;;;;;;;;;;;;;;;;;5083198;28;1299;-75
2022/01/24 04:10:43;;;;;;;;;;;;;;;;;;5090223;27;1877;-75
2022/01/24 04:13:23;;;;;;;;;;;;;;;;;;5106595;27;1341;-75
2022/01/24 04:23:54;;;;;;;;;;;;;;;;;;5122815;27;1098;-76
2022/01/24 04:26:19;;;;;;;;;;;;;;;;;;5124643;27;1222;-76
2022/01/24 04:28:44;;;;;;;;;;;;;;;;;;5106773;27;1187;-76
2022/01/24 04:31:13;;;;;;;;;;;;;;;;;;5106001;28;1943;-74
2022/01/24 04:33:39;;;;;;;;;;;;;;;;;;5106782;28;1219;-75
2022/01/24 04:36:04;;;;;;;;;;;;;;;;;;5090161;28;1319;-76
2022/01/24 04:38:30;;;;;;;;;;;;;;;;;;5101795;28;1148;-75
2022/01/24 04:41:02;;;;;;;;;;;;;;;;;;5107009;28;1327;-75
2022/01/24 04:46:10;;;;;;;;;;;;;;;;;;5106868;28;1223;-74
2022/01/24 04:56:58;;;;;;;;;;;;;;;;;;5129061;27;1032;-74
2022/01/24 04:59:23;;;;;;;;;;;;;;;;;;5108878;27;1335;-73
2022/01/24 05:01:48;;;;;;;;;;;;;;;;;;5111048;27;1293;-76
2022/01/24 05:04:16;;;;;;;;;;;;;;;;;;5093397;27;1433;-76
2022/01/24 05:06:42;;;;;;;;;;;;;;;;;;5111818;27;1175;-75
2022/01/24 05:09:07;;;;;;;;;;;;;;;;;;5090407;27;1222;-76
2022/01/24 05:11:40;;;;;;;;;;;;;;;;;;5128708;27;1945;-75
2022/01/24 05:24:46;;;;;;;;;;;;;;;;;;5128879;27;1159;-74
2022/01/24 05:27:11;;;;;;;;;;;;;;;;;;5110677;27;1208;-75
2022/01/24 05:29:36;;;;;;;;;;;;;;;;;;5083770;28;1445;-76
2022/01/24 05:32:02;;;;;;;;;;;;;;;;;;5090729;28;1886;-75
2022/01/24 05:34:28;;;;;;;;;;;;;;;;;;5089559;28;1171;-75
2022/01/24 05:37:03;;;;;;;;;;;;;;;;;;5074180;28;1188;-76
2022/01/24 05:39:28;;;;;;;;;;;;;;;;;;5073145;28;1400;-76
2022/01/24 05:41:57;;;;;;;;;;;;;;;;;;5089536;28;1198;-76
2022/01/24 05:44:22;;;;;;;;;;;;;;;;;;5120670;27;1229;-75
2022/01/24 05:46:47;;;;;;;;;;;;;;;;;;5091016;28;1235;-75
2022/01/24 05:49:12;;;;;;;;;;;;;;;;;;5089492;28;1262;-74
2022/01/24 05:51:38;;;;;;;;;;;;;;;;;;5073090;28;1914;-74
2022/01/24 05:54:03;;;;;;;;;;;;;;;;;;5087390;28;1183;-75
2022/01/24 05:56:28;;;;;;;;;;;;;;;;;;5088693;28;1425;-76
2022/01/24 05:58:54;;;;;;;;;;;;;;;;;;5073641;28;1179;-75
2022/01/24 06:01:22;;;;;;;;;;;;;;;;;;5089539;28;1281;-75
2022/01/24 06:03:47;;;;;;;;;;;;;;;;;;5090402;28;1358;-76
2022/01/24 06:06:12;;;;;;;;;;;;;;;;;;5089270;28;1120;-76
2022/01/24 06:08:37;;;;;;;;;;;;;;;;;;5117004;27;1223;-76
2022/01/24 06:11:03;;;;;;;;;;;;;;;;;;5127973;27;1893;-76
2022/01/24 06:13:30;;;;;;;;;;;;;;;;;;5092176;28;1294;-76
2022/01/24 06:15:55;;;;;;;;;;;;;;;;;;5107458;28;1125;-75
2022/01/24 06:18:26;;;;;;;;;;;;;;;;;;5087269;28;1377;-76
2022/01/24 06:20:53;;;;;;;;;;;;;;;;;;5106703;27;1162;-76
2022/01/24 06:23:25;;;;;;;;;;;;;;;;;;5067500;28;1309;-75
2022/01/24 06:25:53;;;;;;;;;;;;;;;;;;5105253;28;1160;-74
2022/01/24 06:28:19;;;;;;;;;;;;;;;;;;5085690;28;1338;-75
2022/01/24 06:30:45;;;;;;;;;;;;;;;;;;5097937;27;1951;-74
2022/01/24 06:33:10;;;;;;;;;;;;;;;;;;5090262;27;1196;-75
2022/01/24 06:35:35;;;;;;;;;;;;;;;;;;5089204;27;1279;-76
2022/01/24 06:38:00;;;;;;;;;;;;;;;;;;5078485;28;1341;-74
2022/01/24 06:40:26;;;;;;;;;;;;;;;;;;5067871;28;1320;-76
2022/01/24 06:42:51;;;;;;;;;;;;;;;;;;5104948;28;1152;-75
2022/01/24 06:45:17;;;;;;;;;;;;;;;;;;5083872;28;1277;-76
2022/01/24 06:48:07;;;;;;;;;;;;;;;;;;5074800;28;1248;-77
2022/01/24 06:50:32;;;;;;;;;;;;;;;;;;5100265;28;1993;-76
2022/01/24 06:53:09;;;;;;;;;;;;;;;;;;5085106;28;1395;-76
2022/01/24 06:55:34;;;;;;;;;;;;;;;;;;5102660;28;1140;-74
2022/01/24 06:58:00;;;;;;;;;;;;;;;;;;5105945;28;1072;-74
2022/01/24 07:00:30;;;;;;;;;;;;;;;;;;5102011;28;1152;-76
2022/01/24 07:02:56;;;;;;;;;;;;;;;;;;5083604;28;1124;-75
2022/01/24 07:05:34;;;;;;;;;;;;;;;;;;5100621;28;1270;-75
2022/01/24 07:08:00;;;;;;;;;;;;;;;;;;5102973;28;1325;-75
2022/01/24 07:10:28;;;;;;;;;;;;;;;;;;5104685;28;1885;-74
2022/01/24 07:12:53;;;;;;;;;;;;;;;;;;5104005;28;1179;-76
2022/01/24 07:15:21;;;;;;;;;;;;;;;;;;5104871;28;1296;-76
2022/01/24 07:20:44;;;;;;;;;;;;;;;;;;5028446;28;1563;-74
2022/01/24 07:23:09;;;;;;;;;;;;;;;;;;5040417;28;1169;-76
2022/01/24 07:25:34;;;;;;;;;;;;;;;;;;5093035;28;1184;-75
2022/01/24 07:28:00;;;;;;;;;;;;;;;;;;5103962;28;1270;-76
2022/01/24 07:30:26;;;;;;;;;;;;;;;;;;5105200;28;1897;-75
2022/01/24 07:32:51;;;;;;;;;;;;;;;;;;5103369;28;1153;-75
2022/01/24 07:35:16;;;;;;;;;;;;;;;;;;5103827;28;1257;-75
2022/01/24 07:37:42;;;;;;;;;;;;;;;;;;5099972;28;1159;-76
2022/01/24 07:40:09;;;;;;;;;;;;;;;;;;5105706;28;1147;-76
2022/01/24 07:42:54;;;;;;;;;;;;;;;;;;5103698;28;1001;-75
2022/01/24 07:45:20;;;;;;;;;;;;;;;;;;5113299;27;1398;-75
2022/01/24 07:47:48;;;;;;;;;;;;;;;;;;5091366;27;1199;-75
2022/01/24 07:50:15;;;;;;;;;;;;;;;;;;5110410;27;1321;-76
2022/01/24 07:52:40;;;;;;;;;;;;;;;;;;5124236;27;1191;-75
2022/01/24 07:55:06;;;;;;;;;;;;;;;;;;5096139;27;1141;-75
2022/01/24 07:57:31;;;;;;;;;;;;;;;;;;5125661;27;1171;-74
2022/01/24 07:59:56;;;;;;;;;;;;;;;;;;5109157;27;1237;-75
2022/01/24 08:02:22;;;;;;;;;;;;;;;;;;5126451;27;1274;-75
2022/01/24 08:04:47;;;;;;;;;;;;;;;;;;5127095;27;1260;-75
2022/01/24 08:07:12;;;;;;;;;;;;;;;;;;5123819;27;1163;-75
2022/01/24 08:09:38;;;;;;;;;;;;;;;;;;5089984;27;1129;-76
2022/01/24 08:12:03;;;;;;;;;;;;;;;;;;5107171;27;1963;-75
2022/01/24 08:14:32;;;;;;;;;;;;;;;;;;5124755;27;1127;-74
2022/01/24 08:16:57;;;;;;;;;;;;;;;;;;5090640;27;1241;-74
2022/01/24 08:19:22;;;;;;;;;;;;;;;;;;5126943;27;1168;-75
2022/01/24 08:21:47;;;;;;;;;;;;;;;;;;5107654;27;1344;-75
2022/01/24 08:24:13;;;;;;;;;;;;;;;;;;5104910;27;1151;-75
2022/01/24 08:26:39;;;;;;;;;;;;;;;;;;5106301;27;1329;-75
2022/01/24 08:29:04;;;;;;;;;;;;;;;;;;5124305;27;1088;-74
2022/01/24 08:31:30;;;;;;;;;;;;;;;;;;5106930;28;1894;-75
2022/01/24 08:33:56;;;;;;;;;;;;;;;;;;5084307;28;1266;-75
2022/01/24 08:36:21;;;;;;;;;;;;;;;;;;5106216;28;1132;-75
2022/01/24 08:38:49;;;;;;;;;;;;;;;;;;5091122;28;1158;-74
2022/01/24 08:41:22;;;;;;;;;;;;;;;;;;5094387;28;1214;-75
2022/01/24 08:46:13;;;;;;;;;;;;;;;;;;5105638;28;1408;-75
2022/01/24 08:48:39;;;;;;;;;;;;;;;;;;5070960;28;1262;-76
2022/01/24 08:51:05;;;;;;;;;;;;;;;;;;5070871;28;1967;-75
2022/01/24 08:53:31;;;;;;;;;;;;;;;;;;5082996;28;1147;-75
2022/01/24 08:56:01;;;;;;;;;;;;;;;;;;5086971;28;1164;-75
2022/01/24 08:58:27;;;;;;;;;;;;;;;;;;5087086;28;1360;-75
2022/01/24 09:00:52;;;;;;;;;;;;;;;;;;5085934;28;1288;-76
2022/01/24 09:03:17;;;;;;;;;;;;;;;;;;5086791;28;1176;-76
2022/01/24 09:05:45;;;;;;;;;;;;;;;;;;5085507;28;1154;-75
2022/01/24 09:08:10;;;;;;;;;;;;;;;;;;5108989;28;1183;-76
2022/01/24 09:10:38;;;;;;;;;;;;;;;;;;5086689;28;1914;-75
2022/01/24 09:13:03;;;;;;;;;;;;;;;;;;5108169;28;1184;-75
2022/01/24 09:15:29;;;;;;;;;;;;;;;;;;5108200;28;1219;-75
2022/01/24 09:17:55;;;;;;;;;;;;;;;;;;5089851;28;1285;-76
2022/01/24 09:20:20;;;;;;;;;;;;;;;;;;5111408;28;1211;-75
2022/01/24 09:22:46;;;;;;;;;;;;;;;;;;5082655;28;1274;-76
2022/01/24 09:25:13;;;;;;;;;;;;;;;;;;5106263;28;1152;-75
2022/01/24 09:27:39;;;;;;;;;;;;;;;;;;5084210;28;1418;-75
2022/01/24 09:30:05;;;;;;;;;;;;;;;;;;5070182;28;1335;-75
2022/01/24 09:32:37;;;;;;;;;;;;;;;;;;5103013;28;1948;-75
2022/01/24 09:35:06;;;;;;;;;;;;;;;;;;5103077;28;1135;-75
2022/01/24 09:37:35;;;;;;;;;;;;;;;;;;5099134;28;1069;-76
2022/01/24 09:40:01;;;;;;;;;;;;;;;;;;5085834;28;1338;-75
2022/01/24 09:42:26;;;;;;;;;;;;;;;;;;5085115;28;1298;-75
2022/01/24 09:44:51;;;;;;;;;;;;;;;;;;5106591;28;1386;-75
2022/01/24 09:47:17;;;;;;;;;;;;;;;;;;5089190;28;1338;-75
2022/01/24 09:49:43;;;;;;;;;;;;;;;;;;5072024;28;1287;-76
2022/01/24 09:52:08;;;;;;;;;;;;;;;;;;5070079;28;1902;-76
2022/01/24 09:54:34;;;;;;;;;;;;;;;;;;5089074;28;1101;-75
2022/01/24 09:57:00;;;;;;;;;;;;;;;;;;5069072;28;1374;-76
2022/01/24 09:59:25;;;;;;;;;;;;;;;;;;5072801;28;1309;-75
2022/01/24 10:01:50;;;;;;;;;;;;;;;;;;5085313;28;1227;-74
2022/01/24 10:04:17;;;;;;;;;;;;;;;;;;5086732;28;1160;-77
2022/01/24 10:07:04;;;;;;;;;;;;;;;;;;5086176;28;1290;-78
2022/01/24 10:09:41;;;;;;;;;;;;;;;;;;5101109;27;1224;-78
2022/01/24 10:12:12;;;;;;;;;;;;;;;;;;5106690;27;1987;-78
2022/01/24 10:17:23;;;;;;;;;;;;;;;;;;5105554;28;1071;-78
2022/01/24 10:19:48;;;;;;;;;;;;;;;;;;5104692;28;1214;-80
2022/01/24 10:22:14;;;;;;;;;;;;;;;;;;5078864;27;1197;-77
2022/01/24 10:24:40;;;;;;;;;;;;;;;;;;5107576;27;1132;-79
2022/01/24 10:27:15;;;;;;;;;;;;;;;;;;5106156;27;1211;-80
2022/01/24 10:29:56;;;;;;;;;;;;;;;;;;5106148;27;1136;-79
2022/01/24 10:32:36;;;;;;;;;;;;;;;;;;5106944;28;1885;-79
2022/01/24 10:35:20;;;;;;;;;;;;;;;;;;5093009;28;1544;-80
2022/01/24 10:37:51;;;;;;;;;;;;;;;;;;5086099;28;1290;-80
2022/01/24 10:43:21;;;;;;;;;;;;;;;;;;5108024;27;1087;-80
2022/01/24 10:45:47;;;;;;;;;;;;;;;;;;5124277;27;1219;-80
2022/01/24 10:48:13;;;;;;;;;;;;;;;;;;5107568;27;1155;-79
2022/01/24 10:50:38;;;;;;;;;;;;;;;;;;5109158;27;1973;-79
2022/01/24 10:53:11;;;;;;;;;;;;;;;;;;5081654;28;1257;-80
2022/01/24 10:55:39;;;;;;;;;;;;;;;;;;5089571;28;1302;-80
2022/01/24 10:58:09;;;;;;;;;;;;;;;;;;5087491;28;1367;-80
2022/01/24 11:00:35;;;;;;;;;;;;;;;;;;5107006;28;1329;-80
2022/01/24 11:03:02;;;;;;;;;;;;;;;;;;5087191;28;1203;-80
2022/01/24 11:05:29;;;;;;;;;;;;;;;;;;5072559;28;1223;-80
2022/01/24 11:07:58;;;;;;;;;;;;;;;;;;5084757;28;1456;-80
2022/01/24 11:10:28;;;;;;;;;;;;;;;;;;5104064;27;1960;-79
2022/01/24 11:12:54;;;;;;;;;;;;;;;;;;5106022;27;1327;-79
2022/01/24 11:15:20;;;;;;;;;;;;;;;;;;5107963;27;1211;-80
2022/01/24 11:17:47;;;;;;;;;;;;;;;;;;5088622;27;1432;-80
2022/01/24 11:20:15;;;;;;;;;;;;;;;;;;5108598;27;1304;-79
2022/01/24 11:22:46;;;;;;;;;;;;;;;;;;5108286;27;1433;-79
2022/01/24 11:25:13;;;;;;;;;;;;;;;;;;5088996;28;1230;-80
2022/01/24 11:27:45;;;;;;;;;;;;;;;;;;5087477;28;1165;-79
2022/01/24 11:30:12;;;;;;;;;;;;;;;;;;5087500;28;1339;-80
2022/01/24 11:32:42;;;;;;;;;;;;;;;;;;5104570;28;1889;-79
2022/01/24 11:35:08;;;;;;;;;;;;;;;;;;5086167;28;1298;-79
2022/01/24 11:37:48;;;;;;;;;;;;;;;;;;5102525;28;1352;-79
2022/01/24 11:40:18;;;;;;;;;;;;;;;;;;5087123;28;1225;-83
2022/01/24 11:42:46;;;;;;;;;;;;;;;;;;5105526;28;1210;-80
2022/01/24 11:45:14;;;;;;;;;;;;;;;;;;5073725;28;1188;-79
2022/01/24 11:47:48;;;;;;;;;;;;;;;;;;5106098;28;1176;-79
2022/01/24 11:50:37;;;;;;;;;;;;;;;;;;5086727;28;1478;-81
2022/01/24 11:53:23;;;;;;;;;;;;;;;;;;5090391;27;1333;-81
2022/01/24 11:55:49;;;;;;;;;;;;;;;;;;5084446;28;1406;-80
2022/01/24 11:58:21;;;;;;;;;;;;;;;;;;5104565;28;1258;-75
2022/01/24 12:00:51;;;;;;;;;;;;;;;;;;5086856;28;1391;-82
2022/01/24 12:03:17;;;;;;;;;;;;;;;;;;5099530;27;1370;-82
2022/01/24 12:05:53;;;;;;;;;;;;;;;;;;5125779;27;1171;-83
2022/01/24 12:08:34;;;;;;;;;;;;;;;;;;5102251;28;1340;-82
2022/01/24 12:11:23;;;;;;;;;;;;;;;;;;5102729;27;1945;-82
2022/01/24 12:13:55;;;;;;;;;;;;;;;;;;5083914;28;1390;-83
2022/01/24 12:16:32;;;;;;;;;;;;;;;;;;5113080;27;1101;-83
2022/01/24 12:18:59;;;;;;;;;;;;;;;;;;5103704;28;1092;-78
2022/01/24 12:21:25;;;;;;;;;;;;;;;;;;5110586;27;1187;-85
2022/01/24 12:23:51;;;;;;;;;;;;;;;;;;5101747;28;1339;-86
2022/01/24 12:26:16;;;;;;;;;;;;;;;;;;5087971;28;1226;-85
2022/01/24 12:28:41;;;;;;;;;;;;;;;;;;5111457;27;1163;-84
2022/01/24 12:31:20;;;;;;;;;;;;;;;;;;5090458;28;1947;-84
2022/01/24 12:33:54;;;;;;;;;;;;;;;;;;5092406;27;1419;-83
2022/01/24 12:37:00;;;;;;;;;;;;;;;;;;;;;
2022/01/24 12:39:32;;;;;;;;;;;;;;;;;;5101341;28;1311;-86
2022/01/24 12:42:02;;;;;;;;;;;;;;;;;;5102580;28;1100;-84
2022/01/24 12:47:14;;;;;;;;;;;;;;;;;;5124819;28;1199;-85
2022/01/24 12:49:40;;;;;;;;;;;;;;;;;;5125797;28;1178;-84
2022/01/24 12:52:08;;;;;;;;;;;;;;;;;;5090725;28;1906;-82
2022/01/24 12:54:35;;;;;;;;;;;;;;;;;;5105766;28;1176;-81
2022/01/24 12:57:01;;;;;;;;;;;;;;;;;;5084996;28;1329;-81
2022/01/24 12:59:27;;;;;;;;;;;;;;;;;;5068995;28;1164;-81
2022/01/24 13:01:56;;;;;;;;;;;;;;;;;;5110438;28;1326;-82
2022/01/24 13:04:37;;;;;;;;;;;;;;;;;;5106991;28;1037;-82
2022/01/24 13:07:04;;;;;;;;;;;;;;;;;;5102670;28;1127;-81
2022/01/24 13:09:29;;;;;;;;;;;;;;;;;;5096952;28;1290;-82
2022/01/24 13:11:55;;;;;;;;;;;;;;;;;;5102362;28;1917;-81
2022/01/24 13:22:50;;;;;;;;;;;;;;;;;;5127113;27;996;-80
2022/01/24 13:25:23;;;;;;;;;;;;;;;;;;5109852;27;1268;-79
2022/01/24 13:27:53;;;;;;;;;;;;;;;;;;5111382;27;1333;-79
2022/01/24 13:30:40;;;;;;;;;;;;;;;;;;5100748;28;1360;-80
2022/01/24 13:33:22;;;;;;;;;;;;;;;;;;5090100;28;1196;-80
2022/01/24 13:35:55;;;;;;;;;;;;;;;;;;5089920;28;1326;-78
2022/01/24 13:38:20;;;;;;;;;;;;;;;;;;5088280;28;1276;-79
2022/01/24 13:41:01;;;;;;;;;;;;;;;;;;5092181;28;1431;-79
2022/01/24 13:43:31;;;;;;;;;;;;;;;;;;5107797;28;1195;-79
2022/01/24 13:45:56;;;;;;;;;;;;;;;;;;5092476;28;1445;-78
2022/01/24 13:48:24;;;;;;;;;;;;;;;;;;5105590;27;1282;-79
2022/01/24 13:50:59;;;;;;;;;;;;;;;;;;5110919;27;1905;-78
2022/01/24 13:53:43;;;;;;;;;;;;;;;;;;5108305;27;1334;-79
2022/01/24 13:56:20;;;;;;;;;;;;;;;;;;5105580;27;1260;-79
2022/01/24 13:59:06;;;;;;;;;;;;;;;;;;5100619;27;1152;-78
2022/01/24 14:01:32;;;;;;;;;;;;;;;;;;5110004;27;1217;-79
2022/01/24 14:03:58;;;;;;;;;;;;;;;;;;5088328;27;1408;-79
2022/01/24 14:06:24;;;;;;;;;;;;;;;;;;5122713;27;1157;-78
2022/01/24 14:09:01;;;;;;;;;;;;;;;;;;5102435;27;1227;-79
2022/01/24 14:11:29;;;;;;;;;;;;;;;;;;5127045;27;1889;-79
2022/01/24 14:14:09;;;;;;;;;;;;;;;;;;5108068;27;1297;-78
2022/01/24 14:16:51;;;;;;;;;;;;;;;;;;5128805;27;1120;-78
2022/01/24 14:19:16;;;;;;;;;;;;;;;;;;5107738;27;1044;-79
2022/01/24 14:22:03;;;;;;;;;;;;;;;;;;5090566;27;1154;-79
2022/01/24 14:24:41;;;;;;;;;;;;;;;;;;5088195;28;1313;-78
2022/01/24 14:27:06;;;;;;;;;;;;;;;;;;5085048;28;1181;-78
2022/01/24 14:29:34;;;;;;;;;;;;;;;;;;5088080;28;1167;-78
2022/01/24 14:32:03;;;;;;;;;;;;;;;;;;5068585;28;1946;-79
2022/01/24 14:34:28;;;;;;;;;;;;;;;;;;5087262;28;1415;-79
2022/01/24 14:37:04;;;;;;;;;;;;;;;;;;5087456;28;1479;-78
2022/01/24 14:39:29;;;;;;;;;;;;;;;;;;5072599;28;1390;-79
2022/01/24 14:42:03;;;;;;;;;;;;;;;;;;5071697;28;1487;-79
2022/01/24 14:47:13;;;;;;;;;;;;;;;;;;5103270;28;1392;-79
2022/01/24 14:49:40;;;;;;;;;;;;;;;;;;5072778;28;1162;-80
2022/01/24 14:52:09;;;;;;;;;;;;;;;;;;5086987;28;1909;-78
2022/01/24 14:54:35;;;;;;;;;;;;;;;;;;5087964;28;1125;-79
2022/01/24 14:57:03;;;;;;;;;;;;;;;;;;5091613;27;1167;-79
2022/01/24 14:59:28;;;;;;;;;;;;;;;;;;5126547;27;1226;-79
2022/01/24 15:02:01;;;;;;;;;;;;;;;;;;5091658;27;1228;-80
2022/01/24 15:04:26;;;;;;;;;;;;;;;;;;5091348;27;1175;-79
2022/01/24 15:06:51;;;;;;;;;;;;;;;;;;5092535;27;1322;-80
2022/01/24 15:09:22;;;;;;;;;;;;;;;;;;5089816;27;1171;-80
2022/01/24 15:11:49;;;;;;;;;;;;;;;;;;5088928;28;1894;-79
2022/01/24 15:14:25;;;;;;;;;;;;;;;;;;5087511;28;1322;-78
2022/01/24 15:27:48;;;;;;;;;;;;;;;;;;5089497;28;1151;-79
2022/01/24 15:30:15;;;;;;;;;;;;;;;;;;5104091;28;1210;-78
2022/01/24 15:32:41;;;;;;;;;;;;;;;;;;5105629;27;1960;-79
2022/01/24 15:35:07;;;;;;;;;;;;;;;;;;5103433;28;1202;-79
2022/01/24 15:37:32;;;;;;;;;;;;;;;;;;5069801;28;1309;-79
2022/01/24 15:39:57;;;;;;;;;;;;;;;;;;5104925;28;1179;-79
2022/01/24 15:47:44;;;;;;;;;;;;;;;;;;5104981;28;1170;-79
2022/01/24 15:50:12;;;;;;;;;;;;;;;;;;5102334;28;1120;-80
2022/01/24 15:52:38;;;;;;;;;;;;;;;;;;5105142;28;1918;-79
2022/01/24 15:55:06;;;;;;;;;;;;;;;;;;5067953;28;1336;-78
2022/01/24 15:57:42;;;;;;;;;;;;;;;;;;5086560;28;1329;-79
2022/01/24 16:00:18;;;;;;;;;;;;;;;;;;5103665;28;1151;-78
2022/01/24 16:02:44;;;;;;;;;;;;;;;;;;5105629;27;1199;-78
2022/01/24 16:05:11;;;;;;;;;;;;;;;;;;5123907;27;1155;-78
2022/01/24 16:07:38;;;;;;;;;;;;;;;;;;5089216;27;1254;-79
2022/01/24 16:10:05;;;;;;;;;;;;;;;;;;5124224;27;1143;-78
2022/01/24 16:12:31;;;;;;;;;;;;;;;;;;5084562;28;1957;-78
2022/01/24 16:14:56;;;;;;;;;;;;;;;;;;5086812;28;1305;-78
2022/01/24 16:17:22;;;;;;;;;;;;;;;;;;5102919;28;1155;-79
2022/01/24 16:19:52;;;;;;;;;;;;;;;;;;5086375;28;1297;-79
2022/01/24 16:22:28;;;;;;;;;;;;;;;;;;5074517;27;1219;-79
2022/01/24 16:27:37;;;;;;;;;;;;;;;;;;5109756;27;1059;-77
2022/01/24 16:30:11;;;;;;;;;;;;;;;;;;5091571;28;1430;-79
2022/01/24 16:32:37;;;;;;;;;;;;;;;;;;5086268;28;1961;-78
2022/01/24 16:35:05;;;;;;;;;;;;;;;;;;5086908;28;1289;-80
2022/01/24 16:37:35;;;;;;;;;;;;;;;;;;5083821;28;1330;-79
2022/01/24 16:40:02;;;;;;;;;;;;;;;;;;5086972;28;1190;-80
2022/01/24 16:42:30;;;;;;;;;;;;;;;;;;5110249;28;1111;-79
2022/01/24 16:45:03;;;;;;;;;;;;;;;;;;5107952;28;1358;-80
2022/01/24 16:47:28;;;;;;;;;;;;;;;;;;5121896;28;1232;-79
2022/01/24 16:49:53;;;;;;;;;;;;;;;;;;5115700;28;1301;-79
2022/01/24 16:52:19;;;;;;;;;;;;;;;;;;5063589;28;1921;-77
2022/01/24 16:54:48;;;;;;;;;;;;;;;;;;5087404;28;1269;-77
2022/01/24 16:57:15;;;;;;;;;;;;;;;;;;5084607;28;1277;-77
2022/01/24 16:59:41;;;;;;;;;;;;;;;;;;5087724;28;1164;-75
2022/01/24 17:02:08;;;;;;;;;;;;;;;;;;5068955;28;1303;-76
2022/01/24 17:04:34;;;;;;;;;;;;;;;;;;5082219;28;1257;-76
2022/01/24 17:07:00;;;;;;;;;;;;;;;;;;5102841;28;1234;-75
2022/01/24 17:09:26;;;;;;;;;;;;;;;;;;5065977;28;1133;-78
2022/01/24 17:11:56;;;;;;;;;;;;;;;;;;5086403;28;1881;-77
2022/01/24 17:14:24;;;;;;;;;;;;;;;;;;5066683;28;1316;-77
2022/01/24 17:16:49;;;;;;;;;;;;;;;;;;5080403;28;1190;-77
2022/01/24 17:19:15;;;;;;;;;;;;;;;;;;5080744;28;1157;-78
2022/01/24 17:21:42;;;;;;;;;;;;;;;;;;5084787;28;1269;-78
2022/01/24 17:24:08;;;;;;;;;;;;;;;;;;5080252;28;1350;-78
2022/01/24 17:26:35;;;;;;;;;;;;;;;;;;5085398;28;1262;-78
2022/01/24 17:29:00;;;;;;;;;;;;;;;;;;5063142;28;1377;-78
2022/01/24 17:31:25;;;;;;;;;;;;;;;;;;5067860;28;1961;-78
2022/01/24 17:33:51;;;;;;;;;;;;;;;;;;5084885;28;1288;-77
2022/01/24 17:36:17;;;;;;;;;;;;;;;;;;5083260;28;1239;-76
2022/01/24 17:38:42;;;;;;;;;;;;;;;;;;5116662;27;1143;-80
2022/01/24 17:41:07;;;;;;;;;;;;;;;;;;5110444;27;1204;-79
2022/01/24 17:43:33;;;;;;;;;;;;;;;;;;5098405;27;1136;-79
2022/01/24 17:46:00;;;;;;;;;;;;;;;;;;5109265;27;1599;-79
2022/01/24 17:48:26;;;;;;;;;;;;;;;;;;5115072;27;1463;-79
2022/01/24 17:50:51;;;;;;;;;;;;;;;;;;5107124;28;1913;-80
2022/01/24 17:53:21;;;;;;;;;;;;;;;;;;5103480;28;1187;-78
2022/01/24 17:55:47;;;;;;;;;;;;;;;;;;5087380;28;1250;-78
2022/01/24 17:58:16;;;;;;;;;;;;;;;;;;5106861;28;1144;-78
2022/01/24 18:00:42;;;;;;;;;;;;;;;;;;5089690;28;1250;-79
2022/01/24 18:03:08;;;;;;;;;;;;;;;;;;5119038;27;1151;-77
2022/01/24 18:05:33;;;;;;;;;;;;;;;;;;5106916;27;1138;-80
2022/01/24 18:07:58;;;;;;;;;;;;;;;;;;5125535;27;1270;-80
2022/01/24 18:10:23;;;;;;;;;;;;;;;;;;5077849;27;1300;-81
2022/01/24 18:12:52;;;;;;;;;;;;;;;;;;5092421;28;1890;-81
2022/01/24 18:15:17;;;;;;;;;;;;;;;;;;5086673;28;1128;-79
2022/01/24 18:17:43;;;;;;;;;;;;;;;;;;5087640;28;1144;-78
2022/01/24 18:20:08;;;;;;;;;;;;;;;;;;5089757;28;1254;-78
2022/01/24 18:22:33;;;;;;;;;;;;;;;;;;5085162;28;1143;-78
2022/01/24 18:24:59;;;;;;;;;;;;;;;;;;5111544;27;1234;-76
2022/01/24 18:27:24;;;;;;;;;;;;;;;;;;5087510;28;1164;-78
2022/01/24 18:29:49;;;;;;;;;;;;;;;;;;5113657;27;1187;-77
2022/01/24 18:32:15;;;;;;;;;;;;;;;;;;5105162;28;1885;-78
2022/01/24 18:34:41;;;;;;;;;;;;;;;;;;5093268;28;1270;-78
2022/01/24 18:37:06;;;;;;;;;;;;;;;;;;5103890;28;1140;-78
2022/01/24 18:39:31;;;;;;;;;;;;;;;;;;5088036;28;1381;-77
2022/01/24 18:42:09;;;;;;;;;;;;;;;;;;5088498;28;1304;-77
2022/01/24 18:44:36;;;;;;;;;;;;;;;;;;5085973;28;1247;-77
2022/01/24 18:47:02;;;;;;;;;;;;;;;;;;5070508;28;1411;-78
2022/01/24 18:49:27;;;;;;;;;;;;;;;;;;5086598;28;1210;-78
2022/01/24 18:51:55;;;;;;;;;;;;;;;;;;5071697;28;1894;-77
2022/01/24 18:54:23;;;;;;;;;;;;;;;;;;5083671;28;1406;-77
2022/01/24 18:56:49;;;;;;;;;;;;;;;;;;5087948;28;1211;-77
2022/01/24 18:59:16;;;;;;;;;;;;;;;;;;5069486;28;1296;-78
2022/01/24 19:01:41;;;;;;;;;;;;;;;;;;5087197;28;1215;-79
2022/01/24 19:04:06;;;;;;;;;;;;;;;;;;5104457;28;1091;-79
2022/01/24 19:06:32;;;;;;;;;;;;;;;;;;5104245;28;1246;-78
2022/01/24 19:08:57;;;;;;;;;;;;;;;;;;5084112;28;1168;-78
2022/01/24 19:11:23;;;;;;;;;;;;;;;;;;5068419;28;1956;-78
2022/01/24 19:13:48;;;;;;;;;;;;;;;;;;5085322;28;1222;-79
2022/01/24 19:16:13;;;;;;;;;;;;;;;;;;5090456;27;1365;-78
2022/01/24 19:18:47;;;;;;;;;;;;;;;;;;5086866;27;1184;-77
2022/01/24 19:23:59;;;;;;;;;;;;;;;;;;5122801;27;1059;-77
2022/01/24 19:26:25;;;;;;;;;;;;;;;;;;5123882;27;1202;-77
2022/01/24 19:28:50;;;;;;;;;;;;;;;;;;5106907;27;1148;-78
2022/01/24 19:31:19;;;;;;;;;;;;;;;;;;5089272;27;1881;-78
2022/01/24 19:33:45;;;;;;;;;;;;;;;;;;5106105;27;1193;-78
2022/01/24 19:36:11;;;;;;;;;;;;;;;;;;5089898;27;1314;-78
2022/01/24 19:38:36;;;;;;;;;;;;;;;;;;5102719;27;1206;-78
2022/01/24 19:41:02;;;;;;;;;;;;;;;;;;5090115;27;1220;-78